Time;durP1;ratioP1;P1;durP2;ratioP2;P2;SDS_P1;SDS_P2;PMS_P1;PMS_P2;Temp;Humidity;BMP_temperature;BMP_pressure;BME280_temperature;BME280_humidity;BME280_pressure;Samples;Min_cycle;Max_cycle;Signal;HPM_P1;HPM_P2
2022/09/08 00:01:22;;;;;;;11.30;2.47;;;;;;;20.99;45.12;99177.41;4979557;28;20118;-75
2022/09/08 00:03:49;;;;;;;6.82;2.40;;;;;;;21.03;44.96;99184.88;5013647;28;20175;-76
2022/09/08 00:06:16;;;;;;;6.07;2.55;;;;;;;21.01;45.14;99175.41;4979932;28;20054;-76
2022/09/08 00:08:43;;;;;;;5.07;2.80;;;;;;;20.98;45.14;99176.56;4963611;28;20034;-77
2022/09/08 00:11:09;;;;;;;4.78;2.63;;;;;;;20.89;45.15;99167.84;4963868;28;20030;-76
2022/09/08 00:13:36;;;;;;;3.88;2.20;;;;;;;20.88;45.71;99175.97;4979541;28;20033;-76
2022/09/08 00:16:02;;;;;;;5.68;2.50;;;;;;;20.81;45.55;99169.69;4979598;28;20342;-76
2022/09/08 00:18:28;;;;;;;3.53;2.47;;;;;;;20.85;46.12;99192.22;4963277;28;20060;-75
2022/09/08 00:20:53;;;;;;;5.03;2.67;;;;;;;20.79;45.90;99175.16;4979622;28;20473;-76
2022/09/08 00:23:19;;;;;;;4.28;2.60;;;;;;;20.71;46.03;99173.38;4994820;28;20386;-77
2022/09/08 00:25:45;;;;;;;4.38;2.65;;;;;;;20.72;46.04;99167.06;4962665;28;20046;-76
2022/09/08 00:28:11;;;;;;;4.65;2.60;;;;;;;20.70;45.96;99176.19;4963271;28;20026;-72
2022/09/08 00:30:37;;;;;;;5.97;2.60;;;;;;;20.69;46.31;99177.22;4979227;28;20489;-72
2022/09/08 00:33:03;;;;;;;5.25;2.67;;;;;;;20.63;46.31;99176.03;4979010;28;20041;-73
2022/09/08 00:35:28;;;;;;;6.18;2.92;;;;;;;20.64;46.36;99176.88;4978732;28;20042;-72
2022/09/08 00:37:54;;;;;;;4.50;2.85;;;;;;;20.63;46.62;99173.38;4979122;28;20021;-72
2022/09/08 00:40:20;;;;;;;8.40;2.72;;;;;;;20.62;46.64;99174.41;4995457;28;20049;-73
2022/09/08 00:42:46;;;;;;;6.10;2.65;;;;;;;20.60;46.71;99173.72;4961933;28;20034;-73
2022/09/08 00:45:12;;;;;;;4.47;2.60;;;;;;;20.59;46.69;99180.03;4959789;28;20030;-73
2022/09/08 00:48:00;;;;;;;7.95;2.88;;;;;;;20.58;46.88;99181.03;4959317;28;20038;-72
2022/09/08 00:50:26;;;;;;;6.97;2.70;;;;;;;20.55;47.05;99186.66;4949160;28;20038;-74
2022/09/08 00:53:00;;;;;;;4.45;2.50;;;;;;;20.48;47.34;99177.72;4967851;28;20060;-73
2022/09/08 00:55:36;;;;;;;7.45;2.80;;;;;;;20.46;47.21;99175.25;4966056;28;20076;-73
2022/09/08 00:58:02;;;;;;;5.25;2.42;;;;;;;20.43;47.31;99176.44;4966605;28;20120;-73
2022/09/08 01:00:27;;;;;;;5.95;2.80;;;;;;;20.44;47.26;99182.56;4951580;28;20499;-73
2022/09/08 01:02:53;;;;;;;5.65;2.95;;;;;;;20.46;47.50;99177.06;4967592;28;20506;-73
2022/09/08 01:05:24;;;;;;;4.43;2.75;;;;;;;20.46;47.67;99182.38;4979628;28;20046;-74
2022/09/08 01:13:58;;;;;;;5.10;2.72;;;;;;;20.40;47.74;99176.78;4954328;28;20057;-73
2022/09/08 01:16:23;;;;;;;5.55;3.10;;;;;;;20.34;47.40;99169.50;4973960;28;20042;-73
2022/09/08 01:18:49;;;;;;;4.13;2.47;;;;;;;20.37;47.71;99174.47;4990081;28;20045;-73
2022/09/08 01:21:42;;;;;;;8.98;2.80;;;;;;;20.35;47.65;99167.66;4973703;28;20400;-73
2022/09/08 01:24:34;;;;;;;6.35;2.58;;;;;;;20.37;47.74;99165.69;4971375;28;20042;-74
2022/09/08 01:27:00;;;;;;;5.53;2.80;;;;;;;20.36;47.92;99171.97;4973370;28;20019;-74
2022/09/08 01:29:25;;;;;;;4.50;2.47;;;;;;;20.33;47.98;99167.81;4987526;28;20035;-73
2022/09/08 01:31:51;;;;;;;5.05;2.65;;;;;;;20.32;48.17;99163.53;4973058;28;20045;-74
2022/09/08 01:34:16;;;;;;;4.85;2.78;;;;;;;20.27;48.12;99165.84;4989777;28;20038;-80
2022/09/08 01:36:42;;;;;;;6.38;2.63;;;;;;;20.25;48.13;99165.19;4961341;28;20074;-71
2022/09/08 01:39:07;;;;;;;3.80;2.78;;;;;;;20.23;48.29;99168.00;4972009;28;20033;-73
2022/09/08 01:41:33;;;;;;;7.28;2.70;;;;;;;20.19;48.18;99168.53;4973447;28;20054;-73
2022/09/08 01:43:58;;;;;;;4.63;2.80;;;;;;;20.14;48.15;99157.59;4991393;28;20049;-73
2022/09/08 01:46:24;;;;;;;5.07;2.60;;;;;;;20.12;48.19;99160.41;4977624;28;20516;-73
2022/09/08 01:48:49;;;;;;;5.60;2.65;;;;;;;20.13;48.29;99161.25;4977332;28;20030;-74
2022/09/08 01:51:15;;;;;;;3.47;2.42;;;;;;;20.12;48.26;99159.59;4977158;28;20073;-73
2022/09/08 01:53:40;;;;;;;6.55;2.53;;;;;;;20.09;48.33;99160.75;4977136;28;20510;-74
2022/09/08 01:56:06;;;;;;;4.38;2.63;;;;;;;20.03;48.51;99151.63;4955375;28;20045;-72
2022/09/08 01:58:32;;;;;;;4.05;2.40;;;;;;;20.04;48.40;99155.13;4973133;28;20042;-73
2022/09/08 02:00:58;;;;;;;5.53;2.67;;;;;;;20.03;48.49;99156.13;4993221;28;20096;-73
2022/09/08 02:03:23;;;;;;;5.55;2.65;;;;;;;19.99;48.56;99153.00;4991183;28;20023;-72
2022/09/08 02:05:49;;;;;;;2.88;2.25;;;;;;;19.97;48.33;99157.63;4976041;28;20427;-73
2022/09/08 02:08:14;;;;;;;4.72;2.50;;;;;;;19.98;48.71;99153.97;4976980;28;20038;-72
2022/09/08 02:10:40;;;;;;;5.85;2.90;;;;;;;19.94;48.57;99155.31;4997736;28;20062;-73
2022/09/08 02:13:05;;;;;;;5.90;2.40;;;;;;;19.91;48.56;99150.34;4999868;28;20063;-72
2022/09/08 02:15:31;;;;;;;5.45;2.83;;;;;;;19.91;48.66;99158.31;4999461;28;20057;-72
2022/09/08 02:17:57;;;;;;;3.95;2.38;;;;;;;19.92;48.60;99153.81;5015948;28;20565;-73
2022/09/08 02:20:22;;;;;;;4.72;2.60;;;;;;;19.90;48.58;99151.34;4999103;28;20040;-72
2022/09/08 02:22:48;;;;;;;4.97;2.63;;;;;;;19.91;48.56;99153.00;5015881;28;20084;-73
2022/09/08 02:25:13;;;;;;;4.88;2.60;;;;;;;19.90;48.66;99151.34;5016064;28;20033;-72
2022/09/08 02:27:39;;;;;;;4.60;2.78;;;;;;;19.89;48.57;99149.69;5015867;28;20025;-74
2022/09/08 02:30:07;;;;;;;3.42;2.15;;;;;;;19.86;48.75;99145.56;5015915;28;20032;-73
2022/09/08 02:32:36;;;;;;;5.80;2.60;;;;;;;19.83;48.92;99142.38;4984014;28;20028;-72
2022/09/08 02:35:02;;;;;;;4.55;2.60;;;;;;;19.78;49.00;99134.13;4999632;28;20052;-73
2022/09/08 02:37:27;;;;;;;3.47;2.38;;;;;;;19.76;48.96;99125.50;4999003;28;20480;-74
2022/09/08 02:39:53;;;;;;;4.70;2.50;;;;;;;19.70;48.98;99113.72;4998910;28;20428;-72
2022/09/08 02:42:18;;;;;;;4.07;2.50;;;;;;;19.71;49.30;99126.00;4999392;28;20110;-73
2022/09/08 02:44:44;;;;;;;3.58;2.38;;;;;;;19.74;49.13;99135.44;4983073;28;20033;-73
2022/09/08 02:47:09;;;;;;;6.93;2.53;;;;;;;19.75;49.22;99123.84;5032017;28;20048;-73
2022/09/08 02:49:35;;;;;;;5.07;2.47;;;;;;;19.75;49.21;99127.31;5033099;28;20033;-72
2022/09/08 02:52:01;;;;;;;5.25;2.70;;;;;;;19.67;49.17;99119.38;4982049;28;20491;-73
2022/09/08 02:54:26;;;;;;;4.35;2.63;;;;;;;19.66;49.42;99120.38;4999304;28;20029;-73
2022/09/08 02:56:51;;;;;;;4.93;2.47;;;;;;;19.57;49.40;99127.47;4982711;28;20072;-72
2022/09/08 02:59:17;;;;;;;3.75;2.30;;;;;;;19.60;49.50;99119.22;4998956;28;20033;-73
2022/09/08 03:01:46;;;;;;;6.65;2.60;;;;;;;19.60;49.61;99121.03;5015288;28;20500;-73
2022/09/08 03:04:12;;;;;;;6.38;2.80;;;;;;;19.58;49.67;99126.50;4983448;28;20060;-73
2022/09/08 03:06:38;;;;;;;6.20;2.58;;;;;;;19.58;49.52;99126.50;4997991;28;20072;-73
2022/09/08 03:09:04;;;;;;;3.63;2.28;;;;;;;19.57;49.76;99124.00;4998991;28;20060;-72
2022/09/08 03:11:31;;;;;;;4.72;2.60;;;;;;;19.50;49.69;99119.38;4982560;28;20484;-73
2022/09/08 03:13:58;;;;;;;;;;;;;;;19.55;49.74;99126.81;4999808;28;20428;-72
2022/09/08 03:16:25;;;;;;;4.75;2.70;;;;;;;19.47;49.95;99117.06;4998430;28;20000;-73
2022/09/08 03:18:50;;;;;;;4.07;2.20;;;;;;;19.46;49.98;99125.16;4998244;28;20047;-74
2022/09/08 03:21:16;;;;;;;7.65;2.33;;;;;;;19.53;50.09;99123.53;4998506;28;20064;-73
2022/09/08 03:23:41;;;;;;;7.18;2.47;;;;;;;19.58;49.95;99126.50;5014628;28;20049;-74
2022/09/08 03:26:21;;;;;;;5.43;2.28;;;;;;;19.57;50.07;99124.84;5014694;28;20037;-76
2022/09/08 03:28:47;;;;;;;2.72;2.13;;;;;;;19.56;50.05;99119.69;4998115;28;20690;-74
2022/09/08 03:31:14;;;;;;;4.68;2.22;;;;;;;19.52;50.09;99135.09;4997995;28;20099;-74
2022/09/08 03:33:40;;;;;;;3.78;2.17;;;;;;;19.52;49.89;99132.44;4998568;28;20108;-72
2022/09/08 03:36:07;;;;;;;4.10;2.60;;;;;;;19.46;50.16;99127.81;4998730;28;20033;-72
2022/09/08 03:38:33;;;;;;;7.15;2.60;;;;;;;19.42;50.06;99131.78;4981552;28;20034;-72
2022/09/08 03:40:59;;;;;;;5.95;2.78;;;;;;;19.46;50.07;99133.09;4982048;28;20042;-73
2022/09/08 03:43:24;;;;;;;4.18;2.40;;;;;;;19.48;50.07;99126.66;4982188;28;20385;-73
2022/09/08 03:45:50;;;;;;;6.28;2.55;;;;;;;19.45;49.85;99126.16;5032420;28;20041;-72
2022/09/08 03:48:15;;;;;;;4.05;2.25;;;;;;;19.45;50.02;99127.00;4998304;28;20496;-74
2022/09/08 03:50:41;;;;;;;5.70;2.75;;;;;;;19.46;50.01;99128.63;4981548;28;20501;-73
2022/09/08 03:53:07;;;;;;;6.25;2.70;;;;;;;19.48;50.02;99125.81;4998205;28;20137;-74
2022/09/08 03:55:32;;;;;;;5.97;2.83;;;;;;;19.52;49.80;99132.44;4981917;28;20112;-72
2022/09/08 03:57:59;;;;;;;6.30;2.58;;;;;;;19.69;49.70;99149.19;4998970;28;20030;-72
2022/09/08 04:00:24;;;;;;;4.13;2.50;;;;;;;19.91;48.84;99137.09;4999123;28;20045;-73
2022/09/08 04:02:50;;;;;;;6.78;2.17;;;;;;;20.24;48.06;99142.31;4998869;28;20036;-72
2022/09/08 04:05:16;;;;;;;6.25;2.60;;;;;;;20.54;47.35;99132.81;4999433;28;20124;-74
2022/09/08 04:07:41;;;;;;;6.63;3.45;;;;;;;21.05;46.37;99131.59;4983328;28;20080;-75
2022/09/08 04:10:07;;;;;;;8.13;2.90;;;;;;;21.45;45.03;99127.00;4983223;28;20057;-73
2022/09/08 04:12:33;;;;;;;5.20;2.55;;;;;;;21.94;44.04;99128.47;4999557;28;20072;-73
2022/09/08 04:14:59;;;;;;;7.40;2.25;;;;;;;22.39;43.00;99139.97;5015610;28;20036;-73
2022/09/08 04:17:24;;;;;;;4.78;2.60;;;;;;;22.89;41.63;99127.69;4983757;28;20030;-74
2022/09/08 04:19:50;;;;;;;7.75;2.38;;;;;;;23.45;40.39;99136.91;4998995;28;20195;-72
2022/09/08 04:22:19;;;;;;;7.82;2.45;;;;;;;23.94;39.62;99137.97;4999298;28;20032;-73
2022/09/08 04:24:45;;;;;;;8.38;2.55;;;;;;;24.48;38.62;99142.63;4983403;28;20044;-73
2022/09/08 04:27:11;;;;;;;5.13;2.60;;;;;;;25.12;37.15;99139.81;4998606;28;20060;-72
2022/09/08 04:29:36;;;;;;;6.97;2.40;;;;;;;25.78;35.91;99145.25;4981318;28;20038;-72
2022/09/08 04:32:02;;;;;;;7.15;2.42;;;;;;;26.36;34.57;99149.09;4998421;28;20037;-72
2022/09/08 04:34:27;;;;;;;4.55;2.20;;;;;;;26.95;33.49;99152.66;4998645;28;20029;-75
2022/09/08 04:36:53;;;;;;;4.88;2.25;;;;;;;27.51;32.63;99153.78;5013479;28;20029;-72
2022/09/08 04:39:20;;;;;;;4.78;2.20;;;;;;;27.96;32.07;99142.94;5013695;28;20029;-75
2022/09/08 04:41:46;;;;;;;5.63;2.07;;;;;;;28.57;30.84;99148.47;4981841;28;20506;-74
2022/09/08 04:44:11;;;;;;;5.75;2.10;;;;;;;29.04;30.29;99150.63;5012982;28;20179;-75
2022/09/08 04:46:37;;;;;;;7.70;2.45;;;;;;;29.58;29.71;99156.06;4997364;28;20115;-75
2022/09/08 04:49:02;;;;;;;7.82;2.22;;;;;;;29.98;28.29;99150.03;5013615;28;20535;-77
2022/09/08 04:51:28;;;;;;;4.88;2.40;;;;;;;30.31;27.92;99157.53;4981035;28;20061;-78
2022/09/08 04:53:55;;;;;;;6.55;2.40;;;;;;;30.54;27.68;99155.06;4981343;28;20041;-75
2022/09/08 04:56:21;;;;;;;4.78;2.42;;;;;;;30.83;26.91;99155.91;4981503;28;20099;-79
2022/09/08 04:58:47;;;;;;;6.57;3.05;;;;;;;31.12;27.32;99159.47;4995342;28;20516;-78
2022/09/08 05:01:15;;;;;;;25.77;6.32;;;;;;;31.46;26.32;99164.09;5000397;28;20037;-80
2022/09/08 05:03:41;;;;;;;16.42;4.95;;;;;;;31.85;26.21;99158.81;4982662;28;20063;-84
2022/09/08 05:06:13;;;;;;;82.38;5.40;;;;;;;32.47;25.61;99172.16;4996333;28;20135;-78
2022/09/08 05:08:41;;;;;;;11.15;3.38;;;;;;;32.67;24.93;99159.97;4999314;28;20018;-83
2022/09/08 05:11:06;;;;;;;8.38;2.90;;;;;;;33.00;24.61;99167.13;4982411;28;20040;-80
2022/09/08 05:13:32;;;;;;;13.50;3.10;;;;;;;33.24;24.35;99164.16;5013710;28;20030;-78
2022/09/08 05:16:18;;;;;;;14.82;3.10;;;;;;;33.40;23.98;99172.41;5032749;28;20033;-76
2022/09/08 05:18:48;;;;;;;10.80;2.88;;;;;;;33.71;24.30;99168.91;5039175;28;20029;-86
2022/09/08 05:21:14;;;;;;;5.75;2.45;;;;;;;33.65;24.08;99166.38;4998177;28;20037;-76
2022/09/08 05:23:39;;;;;;;6.40;2.38;;;;;;;33.90;23.55;99176.63;4996944;28;20426;-75
2022/09/08 05:26:06;;;;;;;10.98;2.83;;;;;;;33.70;22.85;99169.16;4980294;28;20026;-77
2022/09/08 05:28:34;;;;;;;7.90;2.33;;;;;;;33.81;22.98;99175.47;4980727;28;20508;-78
2022/09/08 05:31:00;;;;;;;7.00;2.35;;;;;;;33.96;22.70;99174.78;4997200;28;20045;-78
2022/09/08 05:33:25;;;;;;;9.18;2.85;;;;;;;33.97;22.20;99179.94;4980519;28;20033;-77
2022/09/08 05:35:51;;;;;;;6.75;2.30;;;;;;;33.97;21.52;99187.22;4996769;28;20474;-77
2022/09/08 05:38:17;;;;;;;5.05;2.20;;;;;;;33.91;22.01;99177.47;4980693;28;20049;-78
2022/09/08 05:40:42;;;;;;;5.53;2.70;;;;;;;33.96;22.00;99188.31;4996993;28;20497;-77
2022/09/08 05:43:08;;;;;;;10.75;2.40;;;;;;;33.93;21.78;99175.31;4997055;28;20026;-79
2022/09/08 05:45:33;;;;;;;6.32;2.30;;;;;;;33.89;21.21;99185.84;4981111;28;20183;-80
2022/09/08 05:47:59;;;;;;;13.45;2.30;;;;;;;33.81;22.05;99170.91;4981110;28;20021;-75
2022/09/08 05:50:24;;;;;;;7.55;2.50;;;;;;;33.90;21.62;99184.75;4997159;28;20045;-75
2022/09/08 05:52:50;;;;;;;8.82;2.28;;;;;;;33.92;22.20;99189.91;5013402;28;20037;-79
2022/09/08 05:55:17;;;;;;;16.23;2.42;;;;;;;34.10;22.80;99186.78;5013299;28;20117;-78
2022/09/08 05:57:43;;;;;;;14.90;2.75;;;;;;;34.14;22.79;99184.38;5000382;28;20029;-84
2022/09/08 06:00:09;;;;;;;11.60;2.50;;;;;;;34.18;22.04;99190.91;4998226;28;20037;-80
2022/09/08 06:02:34;;;;;;;10.45;2.78;;;;;;;34.25;22.59;99180.66;4981535;28;20390;-79
2022/09/08 06:05:00;;;;;;;21.95;3.10;;;;;;;34.69;23.12;99184.97;4980281;28;20129;-83
2022/09/08 06:07:25;;;;;;;7.03;2.60;;;;;;;35.36;22.27;99193.31;4996916;28;20112;-83
2022/09/08 06:09:52;;;;;;;29.67;3.90;;;;;;;35.86;21.36;99189.03;5012723;28;20141;-76
2022/09/08 06:12:17;;;;;;;18.20;3.55;;;;;;;36.23;20.71;99179.72;4996233;28;20022;-75
2022/09/08 06:14:42;;;;;;;13.93;3.00;;;;;;;36.47;20.48;99182.66;5012042;28;20029;-80
2022/09/08 06:17:09;;;;;;;12.88;3.05;;;;;;;36.81;20.19;99189.34;4978790;28;20492;-79
2022/09/08 06:19:34;;;;;;;7.20;2.65;;;;;;;37.04;20.14;99188.69;4996892;28;20029;-79
2022/09/08 06:22:00;;;;;;;12.18;3.10;;;;;;;37.23;19.80;99182.63;5015031;28;20032;-79
2022/09/08 06:24:25;;;;;;;9.57;2.72;;;;;;;37.28;19.79;99177.94;4982564;28;20038;-81
2022/09/08 06:27:06;;;;;;;21.23;2.80;;;;;;;37.42;19.64;99174.59;5015485;28;20045;-82
2022/09/08 06:30:11;;;;;;;14.98;2.50;;;;;;;37.43;19.72;99177.03;4984194;28;20028;-77
2022/09/08 06:32:48;;;;;;;31.92;3.13;;;;;;;37.57;19.49;99181.81;4990040;28;20091;-76
2022/09/08 06:35:50;;;;;;;26.63;2.90;;;;;;;37.50;19.51;99181.31;4989015;28;20038;-78
2022/09/08 06:38:27;;;;;;;11.90;2.85;;;;;;;37.52;19.52;99173.69;4990644;28;20549;-79
2022/09/08 06:40:58;;;;;;;15.80;2.80;;;;;;;37.48;19.44;99185.16;4976827;28;20042;-77
2022/09/08 06:43:34;;;;;;;16.55;2.88;;;;;;;37.47;19.44;99185.44;4960967;28;20035;-76
2022/09/08 06:46:00;;;;;;;13.73;2.87;;;;;;;37.46;19.92;99186.53;4993760;28;20038;-74
2022/09/08 06:48:34;;;;;;;9.25;2.55;;;;;;;37.47;19.60;99180.78;4977165;28;20051;-76
2022/09/08 06:51:00;;;;;;;9.55;2.13;;;;;;;37.43;19.32;99187.09;4977037;28;20034;-76
2022/09/08 06:53:30;;;;;;;7.53;2.55;;;;;;;37.29;19.73;99184.19;4989818;28;20042;-76
2022/09/08 06:55:58;;;;;;;11.48;2.65;;;;;;;37.32;19.97;99180.09;4975163;28;20042;-72
2022/09/08 06:58:27;;;;;;;12.35;2.67;;;;;;;37.35;18.73;99179.53;4958884;28;20036;-77
2022/09/08 07:01:25;;;;;;;11.05;2.50;;;;;;;37.40;18.58;99187.66;4974925;28;20477;-78
2022/09/08 07:04:05;;;;;;;11.75;2.20;;;;;;;37.61;18.09;99183.69;4975350;28;20502;-81
2022/09/08 07:06:35;;;;;;;5.00;2.30;;;;;;;37.74;17.29;99193.13;4991453;28;20109;-79
2022/09/08 07:09:07;;;;;;;7.78;2.10;;;;;;;37.86;17.34;99192.75;4995678;28;20038;-77
2022/09/08 07:11:51;;;;;;;6.45;2.00;;;;;;;38.00;16.98;99199.16;5032727;28;20781;-78
2022/09/08 07:14:51;;;;;;;4.45;2.00;;;;;;;38.14;17.09;99202.00;5012961;28;20056;-78
2022/09/08 07:17:29;;;;;;;4.45;1.90;;;;;;;38.22;17.20;99205.25;5011220;28;20034;-73
2022/09/08 07:19:55;;;;;;;5.28;1.75;;;;;;;38.35;17.18;99207.25;5013448;28;20099;-73
2022/09/08 07:22:36;;;;;;;7.90;2.00;;;;;;;38.35;17.07;99202.63;5014284;28;20029;-74
2022/09/08 07:25:27;;;;;;;6.00;2.15;;;;;;;38.44;16.99;99199.28;5030135;28;20405;-74
2022/09/08 07:28:02;;;;;;;15.30;3.83;;;;;;;38.48;19.85;99201.13;4999911;28;20045;-79
2022/09/08 07:30:27;;;;;;;12.70;2.67;;;;;;;38.29;19.84;99195.63;4998893;28;20130;-75
2022/09/08 07:33:34;;;;;;;13.80;2.50;;;;;;;38.01;20.05;99198.03;4980661;28;20029;-74
2022/09/08 07:36:19;;;;;;;13.02;2.55;;;;;;;38.32;18.71;99203.22;4919060;29;20031;-72
2022/09/08 07:38:49;;;;;;;7.85;2.42;;;;;;;38.55;17.95;99201.56;4949996;29;20503;-76
2022/09/08 07:41:28;;;;;;;19.25;5.15;;;;;;;38.42;18.91;99201.47;4935127;29;20491;-74
2022/09/08 07:43:57;;;;;;;16.95;4.40;;;;;;;38.30;18.88;99205.44;4950333;29;20039;-72
2022/09/08 07:46:37;;;;;;;9.30;3.28;;;;;;;38.10;18.93;99203.69;4934719;29;20566;-78
2022/09/08 07:49:15;;;;;;;8.90;3.10;;;;;;;38.17;19.23;99198.72;4919881;29;20094;-74
2022/09/08 07:51:51;;;;;;;8.15;3.35;;;;;;;38.19;19.06;99201.16;4949034;29;20074;-78
2022/09/08 07:54:38;;;;;;;12.35;3.38;;;;;;;38.14;18.30;99204.72;4948212;29;20039;-79
2022/09/08 07:57:18;;;;;;;11.77;3.10;;;;;;;38.11;18.74;99212.69;4949536;29;20027;-79
2022/09/08 08:00:05;;;;;;;7.22;2.78;;;;;;;37.93;18.76;99206.84;4949602;29;20049;-80
2022/09/08 08:02:42;;;;;;;9.95;2.92;;;;;;;38.05;18.14;99214.66;4934800;29;20850;-83
2022/09/08 08:05:30;;;;;;;7.95;2.63;;;;;;;38.19;18.33;99204.72;4950611;29;20047;-82
2022/09/08 08:08:06;;;;;;;9.02;2.92;;;;;;;38.35;18.25;99208.09;4951524;29;20035;-85
2022/09/08 08:10:54;;;;;;;4.97;2.90;;;;;;;38.41;17.84;99197.13;4919932;29;20038;-84
2022/09/08 08:13:51;;;;;;;4.80;2.80;;;;;;;38.39;18.02;99196.59;4935829;29;20046;-84
2022/09/08 08:16:34;;;;;;;6.72;2.92;;;;;;;38.42;17.55;99196.03;4936047;29;20126;-81
2022/09/08 08:19:14;;;;;;;7.82;2.88;;;;;;;38.43;17.34;99190.28;4926979;29;20521;-79
2022/09/08 08:21:56;;;;;;;6.35;2.80;;;;;;;38.44;17.93;99189.16;4949584;29;20054;-85
2022/09/08 08:24:31;;;;;;;4.90;2.33;;;;;;;38.42;17.30;99187.84;4934243;29;20035;-84
2022/09/08 08:27:02;;;;;;;5.18;2.95;;;;;;;38.48;17.84;99186.69;4945634;29;20023;-81
2022/09/08 08:29:43;;;;;;;5.95;2.65;;;;;;;38.62;17.64;99198.53;4919378;29;20542;-83
2022/09/08 08:32:14;;;;;;;5.97;2.47;;;;;;;38.60;17.81;99195.25;4949811;29;20539;-82
2022/09/08 08:34:46;;;;;;;8.02;2.78;;;;;;;38.62;17.51;99192.25;4917716;29;20030;-80
2022/09/08 08:37:17;;;;;;;6.32;2.38;;;;;;;38.57;17.28;99187.66;4950272;29;20054;-80
2022/09/08 08:39:45;;;;;;;4.90;2.28;;;;;;;38.68;17.34;99189.19;4919678;29;20027;-78
2022/09/08 08:42:52;;;;;;;6.82;2.50;;;;;;;38.68;17.70;99200.09;4934769;29;21495;-80
2022/09/08 08:45:17;;;;;;;6.35;2.47;;;;;;;38.66;17.64;99193.31;4920493;29;20059;-78
2022/09/08 08:48:01;;;;;;;5.45;2.50;;;;;;;38.68;17.85;99193.81;4934414;29;20117;-77
2022/09/08 08:50:33;;;;;;;4.28;2.40;;;;;;;38.69;17.81;99187.28;4989213;28;20382;-81
2022/09/08 08:53:29;;;;;;;8.82;2.50;;;;;;;38.54;17.61;99182.81;5010808;28;20068;-76
2022/09/08 08:55:55;;;;;;;5.38;2.63;;;;;;;38.65;17.47;99178.03;5012535;28;20021;-74
2022/09/08 08:58:30;;;;;;;6.38;2.15;;;;;;;38.73;16.91;99177.41;5011592;28;20029;-72
2022/09/08 09:01:03;;;;;;;3.67;2.20;;;;;;;38.80;16.98;99166.13;5012577;28;20025;-76
2022/09/08 09:03:49;;;;;;;11.65;2.15;;;;;;;38.93;16.82;99172.75;4997209;28;20076;-72
2022/09/08 09:06:36;;;;;;;11.18;1.98;;;;;;;38.93;16.41;99170.03;4997215;28;20132;-73
2022/09/08 09:09:29;;;;;;;3.78;2.00;;;;;;;38.95;15.81;99159.63;5010360;28;20026;-72
2022/09/08 09:12:13;;;;;;;5.50;2.22;;;;;;;38.91;16.43;99156.69;4995579;28;20037;-74
2022/09/08 09:14:59;;;;;;;5.32;1.98;;;;;;;38.82;16.51;99148.34;5010044;28;20029;-74
2022/09/08 09:17:34;;;;;;;;;;;;;;;38.71;16.62;99144.97;4994918;28;20025;-78
2022/09/08 09:20:15;;;;;;;5.40;1.77;;;;;;;38.76;16.50;99143.25;5028050;28;19960;-75
2022/09/08 09:22:41;;;;;;;5.07;2.00;;;;;;;38.71;16.42;99134.06;4979185;28;20025;-75
2022/09/08 09:25:17;;;;;;;6.40;2.00;;;;;;;38.62;15.72;99132.25;5012093;28;20550;-74
2022/09/08 09:27:44;;;;;;;3.45;1.83;;;;;;;38.55;16.37;99135.31;4993617;28;20025;-75
2022/09/08 09:30:28;;;;;;;6.57;2.03;;;;;;;38.50;16.49;99129.94;4995616;28;20114;-76
2022/09/08 09:33:26;;;;;;;9.93;2.55;;;;;;;38.39;17.00;99134.69;4996432;28;20033;-72
2022/09/08 09:36:33;;;;;;;9.00;2.53;;;;;;;38.26;16.33;99119.06;5029273;28;20578;-75
2022/09/08 09:39:40;;;;;;;7.40;1.85;;;;;;;38.19;16.98;99131.13;4949590;29;20070;-76
2022/09/08 09:42:12;;;;;;;8.00;2.22;;;;;;;38.04;16.48;99127.75;4915845;29;20046;-77
2022/09/08 09:44:44;;;;;;;6.63;2.15;;;;;;;37.90;16.80;99122.97;4946811;29;20066;-74
2022/09/08 09:47:50;;;;;;;7.13;2.05;;;;;;;37.75;16.51;99120.38;4949446;29;20039;-75
2022/09/08 09:50:34;;;;;;;;;;;;;;;37.56;16.56;99120.25;4895415;29;20052;-75
2022/09/08 09:53:22;;;;;;;5.00;2.15;;;;;;;37.37;17.03;99112.00;4911124;29;19958;-72
2022/09/08 09:55:53;;;;;;;9.07;2.33;;;;;;;37.27;17.00;99113.72;4910909;29;20103;-74
2022/09/08 09:58:43;;;;;;;6.07;2.00;;;;;;;37.08;17.23;99104.56;4912835;29;20044;-73
2022/09/08 10:01:40;;;;;;;3.72;1.83;;;;;;;36.91;16.80;99115.84;4915224;29;20028;-73
2022/09/08 10:04:27;;;;;;;4.07;2.00;;;;;;;36.65;19.54;99113.25;4913448;29;20072;-77
2022/09/08 10:07:07;;;;;;;4.63;1.85;;;;;;;36.35;19.81;99114.22;4914506;29;20051;-71
2022/09/08 10:10:02;;;;;;;9.30;2.28;;;;;;;36.05;19.76;99108.56;4914729;29;20109;-72
2022/09/08 10:12:52;;;;;;;4.10;1.83;;;;;;;35.90;20.21;99099.66;4913413;29;20037;-72
2022/09/08 10:15:42;;;;;;;3.30;1.77;;;;;;;35.72;19.62;99095.59;4925537;28;20112;-72
2022/09/08 10:18:39;;;;;;;4.60;1.90;;;;;;;35.61;19.67;99098.31;4972292;28;20070;-73
2022/09/08 10:21:41;;;;;;;8.63;2.28;;;;;;;35.48;20.21;99098.88;4972253;28;20030;-71
2022/09/08 10:24:44;;;;;;;4.60;2.17;;;;;;;35.35;20.54;99097.53;4998071;28;20049;-73
2022/09/08 10:27:28;;;;;;;5.35;2.05;;;;;;;35.15;20.96;99085.56;5014362;28;20033;-71
2022/09/08 10:30:10;;;;;;;4.18;1.90;;;;;;;35.05;20.91;99087.47;5015060;28;20120;-73
2022/09/08 10:32:38;;;;;;;4.57;1.90;;;;;;;34.96;21.02;99081.75;5015242;28;20029;-74
2022/09/08 10:35:23;;;;;;;5.22;2.00;;;;;;;34.88;21.10;99074.13;5015176;28;20500;-74
2022/09/08 10:38:08;;;;;;;6.72;1.95;;;;;;;34.81;20.78;99071.69;5031851;28;20034;-73
2022/09/08 10:40:39;;;;;;;5.18;2.08;;;;;;;34.70;21.60;99065.41;5013742;28;20027;-74
2022/09/08 10:43:33;;;;;;;4.10;2.00;;;;;;;34.55;21.86;99068.06;4999034;28;20072;-75
2022/09/08 10:46:19;;;;;;;3.83;2.28;;;;;;;34.38;21.96;99061.00;5030238;28;20025;-74
2022/09/08 10:49:00;;;;;;;4.27;1.90;;;;;;;34.25;22.14;99062.31;5012930;28;20037;-71
2022/09/08 10:51:38;;;;;;;5.50;2.10;;;;;;;33.97;22.09;99059.97;5031278;28;20820;-74
2022/09/08 10:54:33;;;;;;;3.92;2.05;;;;;;;33.70;22.51;99053.59;5030913;28;20032;-73
2022/09/08 10:56:59;;;;;;;3.85;2.30;;;;;;;33.56;22.44;99040.75;5012289;28;20033;-77
2022/09/08 10:59:37;;;;;;;7.82;1.98;;;;;;;33.47;22.86;99049.34;4998289;28;20048;-74
2022/09/08 11:02:28;;;;;;;4.97;2.20;;;;;;;33.30;22.76;99035.16;5012908;28;20495;-73
2022/09/08 11:05:12;;;;;;;4.57;2.15;;;;;;;33.10;22.97;99033.06;4984405;28;20076;-74
2022/09/08 11:08:10;;;;;;;5.35;2.20;;;;;;;32.87;22.81;99028.84;5028495;28;20572;-73
2022/09/08 11:10:48;;;;;;;7.35;2.30;;;;;;;32.58;22.16;99034.47;5016741;28;20030;-72
2022/09/08 11:13:28;;;;;;;4.85;2.13;;;;;;;32.37;23.00;99020.75;5032358;28;20028;-70
2022/09/08 11:16:09;;;;;;;5.00;2.17;;;;;;;32.19;22.49;99019.19;5031525;28;20022;-72
2022/09/08 11:18:43;;;;;;;9.45;2.10;;;;;;;32.10;23.37;99021.53;5014390;28;20128;-73
2022/09/08 11:21:30;;;;;;;6.63;2.08;;;;;;;31.85;23.78;99016.59;5031955;28;20030;-71
2022/09/08 11:24:17;;;;;;;9.10;2.15;;;;;;;31.79;23.46;99014.88;5005383;28;20035;-71
2022/09/08 11:26:45;;;;;;;;;;;;;;;31.74;23.93;99006.72;5030360;28;20108;-71
2022/09/08 11:29:17;;;;;;;5.03;2.35;;;;;;;31.61;23.01;98999.78;5013898;28;19908;-72
2022/09/08 11:32:07;;;;;;;6.15;2.25;;;;;;;31.47;23.45;98996.59;4996550;28;20033;-74
2022/09/08 11:35:12;;;;;;;6.28;2.10;;;;;;;31.46;24.18;99003.06;5016131;28;20112;-72
2022/09/08 11:37:58;;;;;;;4.75;2.10;;;;;;;31.27;23.92;98990.91;4948534;29;20026;-72
2022/09/08 11:40:26;;;;;;;5.18;2.72;;;;;;;30.98;24.52;98994.50;4917806;29;20141;-73
2022/09/08 11:43:01;;;;;;;7.50;2.40;;;;;;;30.90;23.68;98992.19;4950647;29;20047;-75
2022/09/08 11:45:50;;;;;;;5.25;2.55;;;;;;;30.78;23.52;98992.25;4951230;29;20187;-74
2022/09/08 11:48:39;;;;;;;7.60;2.35;;;;;;;30.59;23.03;98977.38;4934746;29;20127;-76
2022/09/08 11:51:40;;;;;;;6.30;2.70;;;;;;;30.56;23.76;98980.53;4934169;29;20041;-73
2022/09/08 11:54:26;;;;;;;3.50;2.20;;;;;;;30.35;24.00;98980.16;4949102;29;20031;-72
2022/09/08 11:57:10;;;;;;;6.25;2.30;;;;;;;30.28;23.94;98980.28;4948982;29;20035;-75
2022/09/08 12:00:00;;;;;;;7.72;2.40;;;;;;;30.16;24.00;98979.50;4950351;29;20039;-71
2022/09/08 12:02:41;;;;;;;5.72;2.30;;;;;;;30.05;24.06;98970.41;4949940;29;20038;-73
2022/09/08 12:05:15;;;;;;;9.95;2.70;;;;;;;30.04;23.73;98971.47;4935181;29;20771;-73
2022/09/08 12:08:17;;;;;;;9.57;2.17;;;;;;;29.95;23.57;98972.88;4949105;29;20483;-74
2022/09/08 12:11:04;;;;;;;12.50;2.35;;;;;;;29.76;24.12;98969.50;4952188;28;20027;-74